Time;durP1;ratioP1;P1;durP2;ratioP2;P2;SDS_P1;SDS_P2;PMS_P1;PMS_P2;Temp;Humidity;BMP_temperature;BMP_pressure;BME280_temperature;BME280_humidity;BME280_pressure;Samples;Min_cycle;Max_cycle;Signal;HPM_P1;HPM_P2
2023/03/12 00:00:49;;;;;;;4.63;2.85;;;;;;;3.10;50.13;93934.22;5033560;28;20034;-79
2023/03/12 00:03:14;;;;;;;4.75;2.72;;;;;;;2.30;51.19;93825.06;5033957;28;20104;-79
2023/03/12 00:05:40;;;;;;;8.63;3.30;;;;;;;2.20;50.27;93802.63;5048467;28;20439;-79
2023/03/12 00:08:06;;;;;;;4.68;2.72;;;;;;;3.09;51.01;93950.56;5053812;28;20039;-79
2023/03/12 00:10:31;;;;;;;5.18;3.00;;;;;;;2.48;50.75;93859.75;5036176;28;20374;-80
2023/03/12 00:12:57;;;;;;;7.60;3.47;;;;;;;2.13;52.29;93826.19;5035698;28;20037;-80
2023/03/12 00:15:23;;;;;;;7.40;4.18;;;;;;;2.22;50.52;93831.50;5033913;28;20092;-80
2023/03/12 00:17:48;;;;;;;6.30;4.07;;;;;;;2.97;51.06;93966.75;4999429;28;20046;-80
2023/03/12 00:20:14;;;;;;;6.03;3.92;;;;;;;2.58;51.71;93885.59;5033529;28;20034;-80
2023/03/12 00:22:39;;;;;;;5.30;3.92;;;;;;;2.50;51.45;93880.13;5016376;28;20462;-79
2023/03/12 00:25:06;;;;;;;6.03;4.18;;;;;;;2.97;51.45;93977.03;5016285;28;20611;-79
2023/03/12 00:27:31;;;;;;;9.40;4.45;;;;;;;2.13;53.50;93852.63;5033967;28;20487;-80
2023/03/12 00:29:57;;;;;;;5.28;4.00;;;;;;;2.96;51.80;93970.25;5015774;28;20064;-79
2023/03/12 00:32:23;;;;;;;5.00;4.07;;;;;;;2.89;51.26;93974.94;5033545;28;20030;-79
2023/03/12 00:34:52;;;;;;;7.40;4.28;;;;;;;2.38;50.70;93892.03;5033721;28;20507;-79
2023/03/12 00:37:18;;;;;;;6.40;3.90;;;;;;;2.05;51.11;93849.72;5033279;28;20109;-80
2023/03/12 00:39:44;;;;;;;6.10;3.95;;;;;;;1.85;51.66;93829.72;5015429;28;20100;-80
2023/03/12 00:42:09;;;;;;;6.50;3.85;;;;;;;2.28;51.35;93873.03;5049001;28;20083;-80
2023/03/12 00:44:35;;;;;;;7.90;3.85;;;;;;;2.74;51.39;93958.03;5035074;28;20037;-80
2023/03/12 00:47:00;;;;;;;6.03;3.90;;;;;;;2.49;51.33;93907.53;5030800;28;20029;-80
2023/03/12 00:49:26;;;;;;;5.43;3.63;;;;;;;1.89;50.89;93801.22;5033665;28;20029;-79
2023/03/12 00:51:51;;;;;;;6.72;3.85;;;;;;;2.32;50.94;93877.06;5052732;28;20025;-80
2023/03/12 00:54:17;;;;;;;6.07;4.32;;;;;;;2.64;50.68;93954.41;5034805;28;20037;-79
2023/03/12 00:56:42;;;;;;;5.38;4.07;;;;;;;2.60;51.49;93945.28;5034719;28;20040;-80
2023/03/12 00:59:08;;;;;;;5.50;3.88;;;;;;;2.54;50.74;93941.38;5045283;28;20404;-80
2023/03/12 01:01:33;;;;;;;5.28;4.10;;;;;;;1.86;50.66;93828.78;5014991;28;20033;-80
2023/03/12 01:03:59;;;;;;;5.15;4.00;;;;;;;2.58;50.62;93949.69;5015001;28;20101;-80
2023/03/12 01:06:24;;;;;;;5.18;3.85;;;;;;;1.56;52.02;93822.13;4998563;28;20034;-80
2023/03/12 01:08:50;;;;;;;7.88;3.97;;;;;;;2.22;52.24;93905.81;5022819;28;20037;-80
2023/03/12 01:11:17;;;;;;;5.90;3.63;;;;;;;1.54;51.85;93821.44;4998645;28;20021;-80
2023/03/12 01:13:42;;;;;;;5.07;3.83;;;;;;;1.72;51.80;93853.53;4998736;28;20511;-81
2023/03/12 01:16:08;;;;;;;5.32;4.13;;;;;;;2.03;51.68;93882.31;4998206;28;20037;-80
2023/03/12 01:18:33;;;;;;;9.20;4.38;;;;;;;2.08;52.67;93917.88;4998118;28;20459;-80
2023/03/12 01:20:59;;;;;;;6.47;4.30;;;;;;;2.11;52.91;93946.69;5014606;28;20484;-79
2023/03/12 01:23:25;;;;;;;6.15;3.97;;;;;;;1.38;52.91;93836.09;5014667;28;20025;-80
2023/03/12 01:25:51;;;;;;;8.15;4.38;;;;;;;2.16;53.13;93970.28;4998432;28;20030;-80
2023/03/12 01:28:17;;;;;;;5.88;4.28;;;;;;;1.33;53.26;93844.88;4998232;28;20553;-80
2023/03/12 01:30:42;;;;;;;7.07;3.90;;;;;;;1.92;54.30;93941.94;4998212;28;20171;-80
2023/03/12 01:33:08;;;;;;;7.20;3.88;;;;;;;2.10;54.55;93975.81;4997774;28;20033;-81
2023/03/12 01:35:38;;;;;;;7.43;4.03;;;;;;;1.43;53.76;93870.72;5014642;28;20033;-79
2023/03/12 01:38:04;;;;;;;6.40;4.25;;;;;;;1.99;53.79;93940.59;5014014;28;20083;-80
2023/03/12 01:40:31;;;;;;;5.75;4.00;;;;;;;1.48;54.57;93880.69;5014407;28;20033;-81
2023/03/12 01:42:57;;;;;;;8.55;4.20;;;;;;;1.41;54.65;93905.81;4981745;28;20041;-80
2023/03/12 01:46:00;;;;;;;8.18;4.20;;;;;;;1.98;54.78;93981.72;5014382;28;20041;-79
2023/03/12 01:48:36;;;;;;;9.52;4.57;;;;;;;1.42;54.62;93873.38;5014089;28;20079;-79
2023/03/12 01:51:01;;;;;;;5.68;3.58;;;;;;;1.37;53.86;93871.13;4998351;28;20109;-80
2023/03/12 01:53:27;;;;;;;6.13;3.78;;;;;;;1.61;53.72;93902.03;4997481;28;20480;-80
2023/03/12 01:55:53;;;;;;;6.90;4.13;;;;;;;1.53;55.39;93906.81;4981436;28;20117;-81
2023/03/12 01:58:18;;;;;;;6.05;4.40;;;;;;;1.15;53.79;93820.44;4997723;28;20116;-81
2023/03/12 02:00:44;;;;;;;5.68;3.95;;;;;;;1.36;54.43;93886.56;5013934;28;20083;-81
2023/03/12 02:03:09;;;;;;;5.13;4.15;;;;;;;1.27;53.67;93860.63;4989117;28;20104;-81
2023/03/12 02:05:42;;;;;;;5.40;4.00;;;;;;;2.00;54.14;93961.91;5014001;28;20036;-81
2023/03/12 02:08:08;;;;;;;4.63;3.72;;;;;;;1.27;53.15;93867.47;4982698;28;20488;-78
2023/03/12 02:10:34;;;;;;;7.07;4.35;;;;;;;2.08;52.93;93974.25;5013752;28;20060;-79
2023/03/12 02:12:59;;;;;;;6.00;4.05;;;;;;;1.93;53.90;93976.06;4997059;28;20033;-79
2023/03/12 02:15:26;;;;;;;4.85;3.67;;;;;;;1.96;53.54;93979.22;5013703;28;20072;-79
2023/03/12 02:17:53;;;;;;;4.95;3.67;;;;;;;1.12;52.35;93828.31;5013542;28;20435;-79
2023/03/12 02:20:26;;;;;;;9.55;3.53;;;;;;;2.00;53.34;93960.19;5034095;28;20024;-77
2023/03/12 02:22:59;;;;;;;5.15;3.70;;;;;;;2.03;52.94;93964.28;5033329;28;20495;-78
2023/03/12 02:25:33;;;;;;;5.68;3.65;;;;;;;2.02;51.96;93957.53;5017554;28;20033;-78
2023/03/12 02:27:59;;;;;;;6.15;3.10;;;;;;;1.24;52.32;93832.66;5032904;28;20187;-78
2023/03/12 02:30:26;;;;;;;6.13;3.38;;;;;;;2.12;51.81;93973.97;5029530;28;20037;-78
2023/03/12 02:32:51;;;;;;;4.53;3.28;;;;;;;1.88;50.92;93926.84;4997112;28;20033;-78
2023/03/12 02:35:17;;;;;;;4.97;3.33;;;;;;;1.29;50.33;93850.28;4997121;28;20412;-78
2023/03/12 02:37:49;;;;;;;6.40;3.30;;;;;;;1.94;51.06;93960.56;5013507;28;20419;-78
2023/03/12 02:40:37;;;;;;;3.75;2.58;;;;;;;1.85;51.21;93952.66;4997704;28;20049;-78
2023/03/12 02:43:05;;;;;;;3.78;2.88;;;;;;;1.73;51.31;93926.88;5013941;28;20542;-78
2023/03/12 02:45:30;;;;;;;3.70;2.72;;;;;;;1.22;51.49;93859.25;5013480;28;20052;-78
2023/03/12 02:47:56;;;;;;;4.82;3.45;;;;;;;1.87;51.37;93968.75;5016629;28;20061;-78
2023/03/12 02:50:21;;;;;;;5.75;2.92;;;;;;;1.83;50.65;93957.84;5022901;28;20040;-78
2023/03/12 02:52:47;;;;;;;3.75;2.75;;;;;;;0.84;50.05;93816.41;5071093;28;20029;-78
2023/03/12 02:55:12;;;;;;;4.50;2.95;;;;;;;0.97;50.10;93824.13;5070937;28;20024;-78
2023/03/12 02:57:38;;;;;;;5.00;2.90;;;;;;;0.97;50.81;93824.13;5020331;28;20407;-78
2023/03/12 03:00:11;;;;;;;7.00;2.60;;;;;;;1.83;50.76;93957.03;5013246;28;20619;-78
2023/03/12 03:02:36;;;;;;;5.35;2.70;;;;;;;1.10;50.52;93855.72;5017278;28;20087;-78
2023/03/12 03:05:02;;;;;;;5.95;2.75;;;;;;;0.94;50.72;93816.63;5050810;28;20108;-78
2023/03/12 03:07:27;;;;;;;3.22;2.30;;;;;;;1.87;50.28;93973.88;5050179;28;20507;-78
2023/03/12 03:09:53;;;;;;;5.20;2.92;;;;;;;0.61;50.49;93780.25;5050486;28;20060;-78
2023/03/12 03:12:18;;;;;;;3.78;2.70;;;;;;;1.33;50.07;93885.81;5050117;28;20040;-78
2023/03/12 03:14:44;;;;;;;8.52;2.88;;;;;;;1.09;50.28;93841.28;5012586;28;20419;-80
2023/03/12 03:17:10;;;;;;;14.05;5.15;;;;;;;1.66;50.69;93948.66;5012652;28;20050;-81
2023/03/12 03:19:35;;;;;;;106.95;24.83;;;;;;;1.16;49.96;93863.00;4996430;28;20403;-81
2023/03/12 03:22:01;;;;;;;10.55;4.38;;;;;;;1.42;49.48;93912.59;5012144;28;20116;-80
2023/03/12 03:24:26;;;;;;;4.53;3.00;;;;;;;1.33;48.98;93901.16;5021032;28;20108;-81
2023/03/12 03:26:53;;;;;;;3.30;2.28;;;;;;;1.95;47.67;93998.09;5032687;28;20561;-81
2023/03/12 03:29:18;;;;;;;3.17;2.25;;;;;;;1.15;48.17;93904.06;5032556;28;20028;-80
2023/03/12 03:31:44;;;;;;;4.70;3.00;;;;;;;1.86;48.53;94020.88;5030943;28;20033;-80
2023/03/12 03:34:10;;;;;;;4.72;2.67;;;;;;;0.95;47.72;93898.41;5033645;28;20499;-79
2023/03/12 03:36:35;;;;;;;5.95;2.70;;;;;;;1.21;48.07;93914.72;5016707;28;20026;-80
2023/03/12 03:39:01;;;;;;;3.17;1.92;;;;;;;0.97;47.96;93885.50;5016551;28;20033;-80
2023/03/12 03:41:26;;;;;;;4.07;2.15;;;;;;;1.01;47.41;93894.66;5020966;28;20036;-80
2023/03/12 03:43:56;;;;;;;3.58;2.00;;;;;;;1.37;47.03;93942.78;5053741;28;20033;-78
2023/03/12 03:46:21;;;;;;;3.47;2.00;;;;;;;1.41;48.00;93966.44;5036708;28;20079;-80
2023/03/12 03:48:47;;;;;;;3.00;1.98;;;;;;;1.00;46.53;93910.91;5036111;28;20033;-80
2023/03/12 03:51:12;;;;;;;3.08;2.15;;;;;;;1.79;47.09;94038.38;5050253;28;20040;-81
2023/03/12 03:53:38;;;;;;;3.83;2.38;;;;;;;0.84;46.50;93918.69;5000407;28;20037;-80
2023/03/12 03:56:08;;;;;;;3.67;1.92;;;;;;;1.81;46.04;94062.13;5016440;28;20033;-79
2023/03/12 03:58:33;;;;;;;3.30;2.20;;;;;;;0.92;46.80;93915.66;5034123;28;20067;-80
2023/03/12 04:00:59;;;;;;;3.00;1.90;;;;;;;2.01;45.37;94066.06;5027045;28;20048;-80
2023/03/12 04:03:25;;;;;;;3.10;2.00;;;;;;;0.98;46.12;93917.84;5035657;28;20029;-80
2023/03/12 04:05:55;;;;;;;3.67;2.05;;;;;;;1.90;46.19;94060.78;5019402;28;20091;-80
2023/03/12 04:08:20;;;;;;;8.85;3.65;;;;;;;1.78;47.71;94045.22;5035538;28;20423;-80
2023/03/12 04:10:46;;;;;;;8.45;3.95;;;;;;;1.90;47.80;94081.25;5031722;28;20021;-80
2023/03/12 04:13:11;;;;;;;3.65;2.20;;;;;;;1.92;46.27;94084.53;5015797;28;20044;-80
2023/03/12 04:15:37;;;;;;;4.30;2.10;;;;;;;1.02;46.60;93966.16;5033559;28;20033;-80
2023/03/12 04:18:03;;;;;;;2.83;1.80;;;;;;;1.87;45.30;94094.25;5015249;28;20045;-80
2023/03/12 04:20:29;;;;;;;6.68;3.15;;;;;;;0.75;46.55;93937.91;4999727;28;20029;-80
2023/03/12 04:22:54;;;;;;;9.23;3.60;;;;;;;1.81;46.86;94109.97;4982759;28;20033;-80
2023/03/12 04:25:20;;;;;;;5.63;3.45;;;;;;;0.93;47.51;93958.22;5015557;28;20029;-80
2023/03/12 04:27:45;;;;;;;5.50;3.13;;;;;;;0.79;48.05;93975.19;5022587;28;20033;-80
2023/03/12 04:30:11;;;;;;;3.60;2.30;;;;;;;1.10;46.17;94016.88;5052912;28;20099;-79
2023/03/12 04:32:37;;;;;;;4.18;1.80;;;;;;;1.70;44.97;94108.91;5053357;28;20036;-80
2023/03/12 04:35:02;;;;;;;2.88;2.00;;;;;;;0.93;44.57;93983.81;5053118;28;20041;-80
2023/03/12 04:37:30;;;;;;;4.35;1.52;;;;;;;1.63;45.23;94096.53;5040525;28;20034;-79
2023/03/12 04:39:56;;;;;;;3.47;1.80;;;;;;;0.77;45.20;93954.00;4994670;28;20456;-80
2023/03/12 04:42:21;;;;;;;2.58;1.98;;;;;;;0.80;45.17;93987.06;4999112;28;20068;-80
2023/03/12 04:44:47;;;;;;;3.67;2.72;;;;;;;0.88;46.70;93991.72;5016407;28;20059;-79
2023/03/12 04:47:12;;;;;;;3.90;2.35;;;;;;;0.81;45.94;93993.84;5012737;28;20037;-80
2023/03/12 04:49:38;;;;;;;4.68;2.00;;;;;;;0.83;46.22;93991.16;5009101;28;20488;-80
2023/03/12 04:52:04;;;;;;;5.13;3.35;;;;;;;1.00;45.74;94023.44;5045900;28;20035;-80
2023/03/12 04:54:30;;;;;;;5.50;3.13;;;;;;;1.70;45.41;94138.78;5026890;28;20494;-79
2023/03/12 04:56:56;;;;;;;3.88;2.28;;;;;;;1.68;46.23;94148.31;5043796;28;20108;-77
2023/03/12 04:59:22;;;;;;;6.32;3.95;;;;;;;1.59;46.96;94123.22;5045346;28;20400;-78
2023/03/12 05:01:48;;;;;;;5.95;3.50;;;;;;;1.74;46.30;94156.44;5043556;28;20432;-78
2023/03/12 05:04:13;;;;;;;6.38;3.95;;;;;;;1.79;45.54;94168.97;5047666;28;20052;-78
2023/03/12 05:06:38;;;;;;;4.38;2.58;;;;;;;1.82;46.25;94170.53;5023855;28;20025;-78
2023/03/12 05:09:04;;;;;;;4.32;2.83;;;;;;;1.81;46.74;94169.69;5047858;28;20029;-78
2023/03/12 05:11:30;;;;;;;3.38;2.08;;;;;;;1.82;44.87;94162.88;4985899;28;20033;-78
2023/03/12 05:13:55;;;;;;;3.17;1.67;;;;;;;0.65;42.36;93993.88;5018499;28;20033;-78
2023/03/12 05:16:21;;;;;;;3.17;1.60;;;;;;;1.04;41.73;94051.31;5025941;28;20496;-78
2023/03/12 05:18:46;;;;;;;5.32;2.60;;;;;;;1.81;41.68;94163.75;5025190;28;20405;-78
2023/03/12 05:21:17;;;;;;;2.45;1.50;;;;;;;1.90;40.98;94181.97;5028272;28;20063;-78
2023/03/12 05:23:43;;;;;;;7.57;3.38;;;;;;;1.07;42.03;94065.66;5042493;28;20048;-78
2023/03/12 05:26:20;;;;;;;3.08;1.55;;;;;;;1.64;41.40;94139.13;5024933;28;20566;-77
2023/03/12 05:28:45;;;;;;;4.32;1.88;;;;;;;2.00;41.27;94182.25;5046091;28;20094;-78
2023/03/12 05:31:11;;;;;;;2.55;1.90;;;;;;;2.10;41.65;94174.84;5048678;28;20052;-78
2023/03/12 05:33:37;;;;;;;2.75;1.88;;;;;;;1.40;42.02;94072.31;5001990;28;20135;-78
2023/03/12 05:36:02;;;;;;;3.33;1.92;;;;;;;1.13;41.96;94034.59;5036399;28;20052;-77
2023/03/12 05:38:28;;;;;;;2.53;1.63;;;;;;;1.04;42.01;94040.28;5029207;28;20116;-78
2023/03/12 05:40:54;;;;;;;3.95;1.60;;;;;;;2.11;42.15;94185.00;4994235;28;20063;-80
2023/03/12 05:43:20;;;;;;;5.32;2.72;;;;;;;2.09;41.80;94176.59;5026894;28;20069;-78
2023/03/12 05:45:45;;;;;;;4.10;2.28;;;;;;;2.33;40.68;94193.97;5011045;28;20525;-80
2023/03/12 05:48:11;;;;;;;3.58;1.80;;;;;;;1.96;41.95;94157.75;5027668;28;20035;-77
2023/03/12 05:50:37;;;;;;;17.20;7.05;;;;;;;2.20;42.35;94209.25;5025249;28;20034;-79
2023/03/12 05:53:02;;;;;;;8.93;4.93;;;;;;;2.05;43.27;94182.00;5027833;28;20491;-79
2023/03/12 05:55:27;;;;;;;5.75;3.50;;;;;;;2.33;45.05;94206.78;5002125;28;20041;-79
2023/03/12 05:57:53;;;;;;;4.97;2.67;;;;;;;2.26;43.45;94196.09;5044918;28;20071;-79
2023/03/12 06:00:19;;;;;;;8.93;4.60;;;;;;;2.46;43.43;94197.44;5046986;28;20041;-79
2023/03/12 06:02:45;;;;;;;9.15;5.15;;;;;;;3.16;41.98;94222.22;5050563;28;20403;-79
2023/03/12 06:05:10;;;;;;;6.22;3.50;;;;;;;3.09;42.22;94144.75;5029471;28;20033;-79
2023/03/12 06:07:36;;;;;;;3.78;2.28;;;;;;;3.18;39.86;94112.56;5046425;28;20033;-79
2023/03/12 06:10:02;;;;;;;5.75;2.60;;;;;;;5.69;36.66;94243.63;5029606;28;20116;-79
2023/03/12 06:12:27;;;;;;;4.65;3.00;;;;;;;6.70;34.16;94158.66;5029641;28;20464;-79
2023/03/12 06:14:53;;;;;;;4.10;2.92;;;;;;;8.37;31.55;94234.84;5028954;28;20033;-79
2023/03/12 06:17:18;;;;;;;3.92;2.60;;;;;;;9.32;29.41;94191.31;5024583;28;20548;-79
2023/03/12 06:19:44;;;;;;;4.97;3.40;;;;;;;11.05;27.33;94233.69;5009740;28;20032;-79
2023/03/12 06:22:09;;;;;;;3.85;3.22;;;;;;;11.76;26.33;94179.19;5027540;28;20039;-79
2023/03/12 06:24:35;;;;;;;3.60;2.70;;;;;;;13.61;24.66;94211.00;5010071;28;20025;-77
2023/03/12 06:27:01;;;;;;;5.03;2.97;;;;;;;15.80;22.13;94213.41;5044744;28;20455;-78
2023/03/12 06:29:26;;;;;;;3.47;2.58;;;;;;;16.25;21.23;94226.69;5048292;28;20081;-80
2023/03/12 06:31:52;;;;;;;2.72;2.30;;;;;;;16.05;20.47;94155.59;5029199;28;20025;-78
2023/03/12 06:34:17;;;;;;;3.80;2.22;;;;;;;17.84;19.20;94168.53;5047411;28;20108;-78
2023/03/12 06:36:43;;;;;;;7.82;5.28;;;;;;;18.59;19.43;94155.81;5026793;28;20069;-78
2023/03/12 06:39:09;;;;;;;5.97;3.78;;;;;;;19.18;18.75;94213.28;5029106;28;20025;-77
2023/03/12 06:41:34;;;;;;;7.10;5.28;;;;;;;18.52;19.40;94239.09;5046435;28;20399;-78
2023/03/12 06:44:02;;;;;;;7.30;4.80;;;;;;;19.23;18.60;94241.66;5048450;28;20082;-78
2023/03/12 06:46:28;;;;;;;7.88;4.50;;;;;;;19.60;18.26;94245.69;5045544;28;20024;-78
2023/03/12 06:48:53;;;;;;;5.20;3.65;;;;;;;20.60;17.69;94242.53;5047203;28;20415;-78
2023/03/12 06:51:19;;;;;;;11.15;4.20;;;;;;;20.79;17.14;94233.81;5014523;28;20112;-78
2023/03/12 06:53:45;;;;;;;5.80;4.00;;;;;;;20.82;17.71;94248.44;5048347;28;20426;-78
2023/03/12 06:56:11;;;;;;;5.93;3.63;;;;;;;20.44;16.96;94165.38;4995321;28;20509;-78
2023/03/12 06:58:36;;;;;;;4.95;3.60;;;;;;;21.06;16.90;94258.38;5012010;28;20096;-78
2023/03/12 07:01:02;;;;;;;4.32;3.30;;;;;;;21.15;16.84;94266.91;5047539;28;20221;-78
2023/03/12 07:03:27;;;;;;;3.78;2.90;;;;;;;21.20;16.97;94222.16;5012572;28;20025;-78
2023/03/12 07:05:54;;;;;;;4.45;3.50;;;;;;;21.37;17.04;94254.28;5027320;28;20114;-78
2023/03/12 07:08:19;;;;;;;4.10;3.13;;;;;;;21.45;17.01;94266.44;5028789;28;20026;-78
2023/03/12 07:10:45;;;;;;;5.55;3.30;;;;;;;20.74;17.51;94196.66;5030824;28;20495;-78
2023/03/12 07:13:10;;;;;;;3.65;2.60;;;;;;;20.01;18.34;94273.84;5049336;28;20041;-78
2023/03/12 07:15:36;;;;;;;5.00;3.38;;;;;;;19.77;18.28;94203.22;5018528;28;20151;-78
2023/03/12 07:18:06;;;;;;;6.53;3.28;;;;;;;20.06;18.29;94275.91;5043540;28;20057;-78
2023/03/12 07:20:32;;;;;;;7.35;5.32;;;;;;;19.59;18.83;94209.81;5009345;28;20020;-77
2023/03/12 07:22:58;;;;;;;6.65;4.35;;;;;;;18.38;20.01;94303.09;5048530;28;20030;-78
2023/03/12 07:25:24;;;;;;;7.03;5.10;;;;;;;17.24;21.34;94286.94;5032707;28;20431;-80
2023/03/12 07:27:49;;;;;;;6.20;4.82;;;;;;;16.18;21.94;94320.06;5015535;28;20033;-79
2023/03/12 07:30:15;;;;;;;11.73;7.57;;;;;;;15.25;22.79;94307.69;5045406;28;20415;-79
2023/03/12 07:32:41;;;;;;;99.32;29.58;;;;;;;14.73;23.53;94312.31;5016788;28;20040;-78
2023/03/12 07:35:06;;;;;;;25.58;9.13;;;;;;;13.75;24.02;94322.63;5017250;28;20032;-79
2023/03/12 07:37:32;;;;;;;29.08;13.48;;;;;;;13.16;25.96;94324.28;5045812;28;20040;-79
2023/03/12 07:39:57;;;;;;;5.65;3.85;;;;;;;11.73;26.78;94272.31;5050710;28;20087;-79
2023/03/12 07:42:23;;;;;;;7.88;4.60;;;;;;;11.43;27.45;94330.69;5050198;28;20065;-79
2023/03/12 07:44:48;;;;;;;6.80;3.63;;;;;;;10.78;29.25;94339.25;5048438;28;20074;-79
2023/03/12 07:47:14;;;;;;;6.13;3.28;;;;;;;10.26;29.09;94326.53;5022082;28;20404;-79
2023/03/12 07:49:40;;;;;;;7.70;3.92;;;;;;;9.38;30.35;94320.38;5043541;28;20051;-79
2023/03/12 07:52:10;;;;;;;6.18;3.38;;;;;;;8.91;31.86;94330.44;5039304;28;20043;-79
2023/03/12 07:54:36;;;;;;;7.82;4.10;;;;;;;9.04;32.38;94339.75;5049785;28;20419;-79
2023/03/12 07:57:02;;;;;;;5.93;3.78;;;;;;;8.71;31.53;94336.44;5016440;28;20036;-79
2023/03/12 07:59:27;;;;;;;19.02;8.07;;;;;;;8.09;32.57;94254.41;5051528;28;20033;-79
2023/03/12 08:01:53;;;;;;;63.22;27.42;;;;;;;8.55;31.95;94330.88;5031425;28;20075;-79
2023/03/12 08:04:18;;;;;;;12.95;5.78;;;;;;;8.57;33.20;94358.28;5041827;28;20061;-79
2023/03/12 08:06:44;;;;;;;5.30;3.85;;;;;;;8.60;32.56;94355.44;5028346;28;20035;-79
2023/03/12 08:09:10;;;;;;;3.20;2.25;;;;;;;8.05;31.77;94324.53;5052248;28;20596;-79
2023/03/12 08:11:36;;;;;;;4.75;2.78;;;;;;;8.23;31.72;94371.34;5051887;28;20040;-80
2023/03/12 08:14:02;;;;;;;4.10;2.42;;;;;;;8.12;31.93;94373.16;5047754;28;20021;-79
2023/03/12 08:16:28;;;;;;;3.35;2.17;;;;;;;8.14;31.13;94379.06;5060251;28;20107;-79
2023/03/12 08:18:53;;;;;;;5.40;3.60;;;;;;;7.98;32.86;94390.59;5055550;28;20086;-80
2023/03/12 08:21:19;;;;;;;4.82;3.33;;;;;;;7.53;31.54;94349.34;5065657;28;20474;-79
2023/03/12 08:23:45;;;;;;;6.55;4.90;;;;;;;6.79;32.67;94286.19;5015872;28;20045;-85
2023/03/12 08:26:10;;;;;;;3.28;2.10;;;;;;;6.58;32.97;94293.81;5026816;28;20048;-80
2023/03/12 08:28:36;;;;;;;7.55;2.53;;;;;;;6.37;33.58;94283.34;5056175;28;20103;-82
2023/03/12 08:31:02;;;;;;;4.90;2.65;;;;;;;6.45;32.62;94276.66;5037389;28;20033;-83
2023/03/12 08:33:30;;;;;;;6.40;3.90;;;;;;;6.36;33.56;94271.38;5015364;28;20033;-84
2023/03/12 08:35:55;;;;;;;4.53;2.63;;;;;;;7.33;33.62;94387.06;5042330;28;20036;-82
2023/03/12 08:38:21;;;;;;;5.13;3.10;;;;;;;7.45;33.91;94411.13;5031043;28;20041;-78
2023/03/12 08:40:52;;;;;;;4.35;2.80;;;;;;;7.25;33.94;94406.69;5022356;28;20028;-78
2023/03/12 08:43:18;;;;;;;5.22;2.95;;;;;;;7.40;34.35;94415.81;5041346;28;20613;-79
2023/03/12 08:45:44;;;;;;;6.13;2.60;;;;;;;6.54;34.10;94295.78;5054961;28;20033;-78
2023/03/12 08:48:09;;;;;;;3.85;2.60;;;;;;;7.48;34.58;94403.13;5073447;28;20442;-79
2023/03/12 08:50:35;;;;;;;5.72;3.30;;;;;;;7.70;34.11;94406.66;5046062;28;20035;-83
2023/03/12 08:53:00;;;;;;;4.30;2.80;;;;;;;7.26;34.23;94383.28;5031161;28;20057;-81
2023/03/12 08:55:29;;;;;;;5.32;3.50;;;;;;;6.75;33.83;94295.94;5006374;28;20116;-79
2023/03/12 08:57:55;;;;;;;4.10;2.90;;;;;;;7.29;33.20;94336.53;5057148;28;20029;-79
2023/03/12 09:00:20;;;;;;;3.67;2.60;;;;;;;7.64;32.96;94381.28;5004529;28;20066;-81
2023/03/12 09:02:46;;;;;;;4.13;2.40;;;;;;;7.65;31.99;94421.69;5034240;28;20025;-79
2023/03/12 09:05:12;;;;;;;4.97;2.90;;;;;;;7.61;33.52;94421.94;5051564;28;20029;-79
2023/03/12 09:07:38;;;;;;;2.97;2.33;;;;;;;7.52;33.53;94396.81;5042788;28;20121;-81
2023/03/12 09:10:05;;;;;;;6.20;3.70;;;;;;;7.00;34.12;94325.88;5044754;28;20029;-78
2023/03/12 09:12:30;;;;;;;5.68;2.60;;;;;;;6.89;33.91;94289.72;5032690;28;20067;-78
2023/03/12 09:14:56;;;;;;;4.10;2.30;;;;;;;6.89;34.34;94333.63;5046642;28;20033;-78
2023/03/12 09:17:21;;;;;;;3.65;2.47;;;;;;;7.26;34.37;94410.91;5034833;28;20046;-78
2023/03/12 09:19:47;;;;;;;3.80;2.55;;;;;;;6.35;33.98;94326.47;5030803;28;20025;-78
2023/03/12 09:22:12;;;;;;;3.92;2.47;;;;;;;6.13;35.17;94294.56;5029950;28;20030;-78
2023/03/12 09:24:38;;;;;;;4.05;2.50;;;;;;;6.70;34.60;94417.59;5029865;28;20029;-79
2023/03/12 09:27:03;;;;;;;4.57;2.90;;;;;;;6.81;35.54;94421.16;5029579;28;20120;-79
2023/03/12 09:29:32;;;;;;;5.55;3.10;;;;;;;6.67;34.88;94422.19;5028922;28;20104;-79
2023/03/12 09:31:58;;;;;;;3.60;2.38;;;;;;;5.91;36.43;94339.09;5012404;28;20033;-79
2023/03/12 09:34:23;;;;;;;4.63;2.50;;;;;;;6.43;36.31;94428.19;5012355;28;20033;-78
2023/03/12 09:36:49;;;;;;;5.13;2.60;;;;;;;6.14;36.31;94334.88;5030701;28;20546;-79
2023/03/12 09:39:15;;;;;;;4.70;2.53;;;;;;;6.70;34.69;94421.94;5029590;28;20502;-78
2023/03/12 09:41:41;;;;;;;5.38;2.42;;;;;;;6.45;35.06;94402.28;5011939;28;20025;-78
2023/03/12 09:44:15;;;;;;;4.03;2.50;;;;;;;5.99;35.47;94325.66;4995503;28;20045;-78
2023/03/12 09:46:47;;;;;;;9.30;4.55;;;;;;;5.85;35.67;94318.91;4996736;28;20108;-78
2023/03/12 09:49:25;;;;;;;9.05;4.93;;;;;;;6.41;36.29;94385.41;5030405;28;20483;-78
2023/03/12 09:51:53;;;;;;;6.15;3.20;;;;;;;6.03;36.52;94291.00;5014714;28;20411;-78
2023/03/12 09:54:32;;;;;;;8.82;4.40;;;;;;;6.96;35.99;94407.09;4997039;28;20823;-80
2023/03/12 09:57:00;;;;;;;8.07;4.82;;;;;;;7.03;36.80;94403.13;5027636;28;20087;-80
2023/03/12 09:59:26;;;;;;;8.63;4.53;;;;;;;6.91;35.86;94375.66;4997679;28;20052;-79
2023/03/12 10:01:54;;;;;;;9.95;3.45;;;;;;;7.06;35.49;94400.31;5012810;28;20491;-79
2023/03/12 10:04:34;;;;;;;4.40;2.55;;;;;;;6.25;35.15;94290.22;4997621;28;20087;-78
2023/03/12 10:07:10;;;;;;;3.07;2.13;;;;;;;6.90;35.00;94407.56;4995788;28;20411;-78
2023/03/12 10:09:48;;;;;;;5.07;3.00;;;;;;;6.89;34.96;94405.94;5015629;28;20029;-78
2023/03/12 10:12:24;;;;;;;5.38;2.58;;;;;;;6.84;35.23;94406.25;5013406;28;20037;-78
2023/03/12 10:15:14;;;;;;;5.93;3.10;;;;;;;5.79;34.79;94271.19;5011026;28;20160;-78
2023/03/12 10:18:05;;;;;;;9.60;5.10;;;;;;;6.76;36.29;94406.00;5035761;28;20507;-78
2023/03/12 10:21:00;;;;;;;6.65;3.55;;;;;;;6.91;34.74;94404.06;5036819;28;20033;-79
2023/03/12 10:24:00;;;;;;;4.07;2.85;;;;;;;7.08;35.18;94405.38;5025193;28;20037;-78
2023/03/12 10:26:38;;;;;;;4.72;2.92;;;;;;;7.08;35.37;94398.44;5031824;28;20037;-78
2023/03/12 10:29:31;;;;;;;5.65;3.22;;;;;;;6.96;35.89;94398.53;4993991;28;20232;-78
2023/03/12 10:32:01;;;;;;;3.83;2.35;;;;;;;6.81;34.61;94388.41;5031383;28;20036;-78
2023/03/12 10:34:45;;;;;;;5.72;2.47;;;;;;;6.82;35.23;94363.41;5016560;28;20174;-78
2023/03/12 10:37:20;;;;;;;3.45;2.15;;;;;;;7.26;34.46;94396.22;5000252;28;20032;-78
2023/03/12 10:39:46;;;;;;;3.67;2.38;;;;;;;7.36;34.37;94399.75;5032778;28;20036;-78
2023/03/12 10:42:13;;;;;;;5.50;2.70;;;;;;;7.43;34.12;94402.66;5016243;28;20029;-78
2023/03/12 10:44:39;;;;;;;5.78;2.92;;;;;;;7.11;33.87;94348.31;5032945;28;20025;-78
2023/03/12 10:47:25;;;;;;;3.10;2.03;;;;;;;7.36;32.81;94412.66;5016233;28;20495;-78
2023/03/12 10:49:52;;;;;;;5.47;2.33;;;;;;;7.28;31.37;94372.84;5050035;28;20534;-78
2023/03/12 10:52:19;;;;;;;6.13;2.95;;;;;;;7.07;32.20;94370.13;5032915;28;20040;-78
2023/03/12 10:54:46;;;;;;;4.50;2.85;;;;;;;7.13;32.48;94411.84;5016475;28;20032;-78
2023/03/12 10:57:12;;;;;;;7.90;3.60;;;;;;;7.22;33.26;94384.47;5016480;28;20061;-78
2023/03/12 10:59:41;;;;;;;6.63;2.47;;;;;;;7.46;31.37;94388.69;5016546;28;20033;-78
2023/03/12 11:02:33;;;;;;;7.72;3.78;;;;;;;7.48;32.11;94397.97;5016448;28;20056;-77
2023/03/12 11:04:58;;;;;;;6.15;3.47;;;;;;;6.98;32.82;94376.00;5016244;28;20212;-78
2023/03/12 11:07:29;;;;;;;7.20;3.60;;;;;;;7.05;32.75;94396.09;5000440;28;20049;-77
2023/03/12 11:10:07;;;;;;;5.38;3.03;;;;;;;7.13;32.66;94398.06;5016162;28;20561;-76
2023/03/12 11:12:35;;;;;;;4.95;3.20;;;;;;;6.91;33.02;94373.88;5032945;28;20087;-77
2023/03/12 11:15:46;;;;;;;3.70;2.17;;;;;;;7.32;33.39;94380.22;5000308;28;20029;-77
2023/03/12 11:18:18;;;;;;;8.82;5.15;;;;;;;7.24;32.50;94379.19;5029711;28;20045;-77
2023/03/12 11:20:43;;;;;;;4.75;3.13;;;;;;;7.05;32.38;94380.59;5032541;28;20053;-77
2023/03/12 11:23:19;;;;;;;10.13;5.13;;;;;;;7.18;33.86;94390.81;5016208;28;20418;-77
2023/03/12 11:25:50;;;;;;;6.18;3.20;;;;;;;7.28;33.30;94385.78;5016743;28;20029;-77
2023/03/12 11:28:37;;;;;;;4.53;2.33;;;;;;;7.43;32.44;94394.91;5016386;28;20029;-77
2023/03/12 11:31:04;;;;;;;4.68;2.47;;;;;;;7.29;31.53;94369.31;5032285;28;20033;-77
2023/03/12 11:33:29;;;;;;;4.43;2.20;;;;;;;7.31;32.72;94344.19;5016347;28;20033;-77
2023/03/12 11:36:08;;;;;;;4.47;2.75;;;;;;;7.89;32.71;94375.81;5015804;28;20488;-77
2023/03/12 11:39:13;;;;;;;5.35;3.30;;;;;;;7.94;32.67;94360.78;5032171;28;20057;-77
2023/03/12 11:42:10;;;;;;;4.10;2.63;;;;;;;8.15;32.59;94378.09;5016322;28;20041;-77